Time;durP1;ratioP1;P1;durP2;ratioP2;P2;SDS_P1;SDS_P2;PMS_P1;PMS_P2;Temp;Humidity;BMP_temperature;BMP_pressure;BME280_temperature;BME280_humidity;BME280_pressure;Samples;Min_cycle;Max_cycle;Signal;HPM_P1;HPM_P2
2022/06/27 00:00:41;;;;;;;20.45;4.53;;;;;;;15.55;79.74;93713.41;5113725;28;20043;-45
2022/06/27 00:03:07;;;;;;;18.92;5.63;;;;;;;15.44;79.55;93715.97;5113719;28;20020;-45
2022/06/27 00:05:32;;;;;;;8.63;4.25;;;;;;;15.49;78.82;93712.91;5113327;28;20023;-48
2022/06/27 00:07:58;;;;;;;12.90;4.00;;;;;;;15.54;77.99;93713.97;5113378;28;20027;-43
2022/06/27 00:10:23;;;;;;;37.63;4.88;;;;;;;15.59;77.69;93715.78;5113550;28;20032;-44
2022/06/27 00:12:49;;;;;;;74.78;7.55;;;;;;;15.51;77.85;93706.78;5113513;28;20092;-47
2022/06/27 00:15:15;;;;;;;16.77;5.30;;;;;;;15.33;79.57;93710.88;5113085;28;20103;-43
2022/06/27 00:17:40;;;;;;;10.75;4.13;;;;;;;15.26;79.00;93711.69;5113101;28;20106;-45
2022/06/27 00:20:06;;;;;;;14.32;4.93;;;;;;;14.99;79.39;93673.41;5113097;28;20019;-46
2022/06/27 00:22:31;;;;;;;11.98;5.57;;;;;;;15.11;80.10;93710.56;5112983;28;20077;-45
2022/06/27 00:24:57;;;;;;;16.60;4.97;;;;;;;15.09;80.92;93709.66;5112999;28;20035;-45
2022/06/27 00:27:23;;;;;;;27.73;5.90;;;;;;;15.20;80.67;93703.59;5112874;28;20019;-47
2022/06/27 00:29:48;;;;;;;49.03;6.22;;;;;;;15.37;80.27;93700.06;5113229;28;20076;-46
2022/06/27 00:32:13;;;;;;;31.33;6.15;;;;;;;15.36;80.81;93698.56;5112802;28;20047;-45
2022/06/27 00:34:39;;;;;;;14.55;4.85;;;;;;;15.35;80.82;93691.56;5094581;28;20027;-45
2022/06/27 00:37:04;;;;;;;19.75;4.30;;;;;;;15.43;79.22;93697.75;5112969;28;20027;-45
2022/06/27 00:39:30;;;;;;;26.52;4.80;;;;;;;15.39;79.44;93700.22;5112946;28;20480;-45
2022/06/27 00:41:55;;;;;;;10.52;4.03;;;;;;;15.37;79.61;93694.50;5112656;28;20020;-43
2022/06/27 00:44:39;;;;;;;10.60;4.25;;;;;;;15.08;80.56;93692.22;5112430;28;20043;-47
2022/06/27 00:47:06;;;;;;;14.80;4.97;;;;;;;15.06;80.35;93694.84;5112889;28;20098;-46
2022/06/27 00:49:33;;;;;;;15.13;5.55;;;;;;;15.16;79.49;93695.66;5112438;28;20020;-44
2022/06/27 00:51:59;;;;;;;9.35;5.15;;;;;;;14.91;79.97;93691.47;5112755;28;20408;-45
2022/06/27 00:54:24;;;;;;;9.98;5.88;;;;;;;14.71;80.87;93695.38;5112566;28;20019;-46
2022/06/27 00:56:51;;;;;;;20.70;6.00;;;;;;;14.67;80.45;93690.22;5112315;28;20546;-47
2022/06/27 00:59:16;;;;;;;9.55;4.65;;;;;;;14.77;79.92;93690.31;5112636;28;20020;-44
2022/06/27 01:01:42;;;;;;;24.10;5.50;;;;;;;14.68;79.76;93675.03;5112204;28;20420;-43
2022/06/27 01:04:07;;;;;;;12.68;5.00;;;;;;;14.81;79.20;93691.38;5112575;28;20047;-45
2022/06/27 01:06:33;;;;;;;6.47;4.45;;;;;;;14.97;78.49;93695.47;5112364;28;20446;-46
2022/06/27 01:08:58;;;;;;;6.03;4.47;;;;;;;14.93;78.13;93678.47;5093925;28;20309;-44
2022/06/27 01:11:24;;;;;;;8.98;4.45;;;;;;;15.04;78.07;93694.69;5112039;28;20024;-43
2022/06/27 01:13:49;;;;;;;7.13;4.43;;;;;;;14.92;78.71;93696.44;5094158;28;20026;-44
2022/06/27 01:16:15;;;;;;;9.73;4.43;;;;;;;14.80;79.46;93698.25;5112299;28;20023;-46
2022/06/27 01:18:42;;;;;;;9.82;4.85;;;;;;;14.91;79.27;93705.38;5111892;28;20024;-46
2022/06/27 01:21:08;;;;;;;19.95;6.03;;;;;;;14.80;79.29;93692.69;5112215;28;20024;-45
2022/06/27 01:23:35;;;;;;;19.27;4.20;;;;;;;14.65;80.77;93700.44;5111848;28;20042;-44
2022/06/27 01:26:00;;;;;;;15.15;3.83;;;;;;;14.90;79.35;93699.06;5112062;28;20060;-43
2022/06/27 01:28:26;;;;;;;14.02;4.00;;;;;;;14.92;79.51;93695.72;5111782;28;20027;-45
2022/06/27 01:30:52;;;;;;;20.92;4.88;;;;;;;14.88;79.70;93698.16;5111959;28;20019;-49
2022/06/27 01:33:17;;;;;;;7.45;3.50;;;;;;;14.85;79.65;93697.28;5111311;28;20088;-43
2022/06/27 01:35:43;;;;;;;43.47;3.65;;;;;;;14.86;80.14;93700.78;5111429;28;20027;-43
2022/06/27 01:38:08;;;;;;;17.65;3.35;;;;;;;14.89;79.98;93708.72;5111528;28;20053;-47
2022/06/27 01:40:34;;;;;;;10.27;2.15;;;;;;;14.78;80.59;93708.47;5111096;28;20024;-45
2022/06/27 01:43:00;;;;;;;21.00;2.90;;;;;;;14.74;80.75;93705.34;5114205;27;20106;-46
2022/06/27 01:45:25;;;;;;;13.55;2.35;;;;;;;14.69;81.53;93718.19;5131720;27;20039;-43
2022/06/27 01:47:51;;;;;;;40.83;6.32;;;;;;;14.70;80.91;93707.81;5120785;27;20023;-44
2022/06/27 01:50:19;;;;;;;35.45;3.30;;;;;;;14.78;80.43;93714.03;5111272;28;20035;-44
2022/06/27 01:52:48;;;;;;;39.38;3.35;;;;;;;14.60;80.57;93716.03;5111353;28;20023;-44
2022/06/27 01:55:13;;;;;;;27.05;2.90;;;;;;;14.65;80.99;93715.06;5111191;28;20027;-45
2022/06/27 01:57:39;;;;;;;17.90;3.70;;;;;;;14.67;80.87;93711.72;5111799;28;20099;-44
2022/06/27 02:00:06;;;;;;;44.28;4.60;;;;;;;14.59;80.81;93720.13;5111206;28;20016;-44
2022/06/27 02:02:33;;;;;;;35.83;3.33;;;;;;;14.53;81.28;93713.31;5111337;28;20035;-44
2022/06/27 02:04:58;;;;;;;30.33;3.42;;;;;;;14.51;81.21;93711.09;5111112;28;20016;-47
2022/06/27 02:07:24;;;;;;;24.30;3.78;;;;;;;14.47;81.84;93715.59;5111282;28;20098;-44
2022/06/27 02:09:50;;;;;;;26.50;4.60;;;;;;;14.67;80.26;93720.03;5111331;28;20106;-44
2022/06/27 02:12:18;;;;;;;22.05;3.20;;;;;;;14.57;80.28;93713.66;5110958;28;20107;-48
2022/06/27 02:14:48;;;;;;;13.30;3.10;;;;;;;14.31;81.30;93690.69;5109685;28;20466;-45
2022/06/27 02:17:15;;;;;;;20.58;3.28;;;;;;;14.54;81.20;93721.09;5110947;28;20027;-45
2022/06/27 02:19:41;;;;;;;16.27;6.03;;;;;;;14.63;79.81;93717.69;5110816;28;20023;-45
2022/06/27 02:22:06;;;;;;;3.90;1.75;;;;;;;14.63;79.91;93723.22;5110869;28;20023;-45
2022/06/27 02:24:32;;;;;;;11.77;2.42;;;;;;;14.63;79.69;93720.47;5110748;28;20023;-44
2022/06/27 02:26:58;;;;;;;9.95;2.03;;;;;;;14.60;80.11;93724.34;5110798;28;20023;-46
2022/06/27 02:29:23;;;;;;;22.92;2.95;;;;;;;14.36;81.39;93723.06;5109469;28;20027;-45
2022/06/27 02:31:50;;;;;;;3.50;1.98;;;;;;;14.44;80.64;93726.53;5109277;28;20019;-45
2022/06/27 02:34:16;;;;;;;3.03;2.00;;;;;;;14.28;81.46;93733.47;5110560;28;20027;-47
2022/06/27 02:36:42;;;;;;;2.60;2.40;;;;;;;14.37;80.44;93732.88;5110895;28;20446;-45
2022/06/27 02:39:08;;;;;;;2.70;2.38;;;;;;;14.43;79.58;93729.88;5092555;28;20023;-44
2022/06/27 02:41:38;;;;;;;8.35;2.58;;;;;;;14.26;80.02;93729.78;5091238;28;20024;-46
2022/06/27 02:44:07;;;;;;;3.47;2.22;;;;;;;14.34;79.92;93736.03;5111231;28;20521;-43
2022/06/27 02:46:33;;;;;;;12.07;3.90;;;;;;;14.07;80.15;93729.56;5110849;28;20043;-44
2022/06/27 02:48:59;;;;;;;7.25;2.40;;;;;;;14.26;79.46;93738.13;5110861;28;20511;-44
2022/06/27 02:51:28;;;;;;;1.73;1.63;;;;;;;14.06;81.25;93736.38;5113244;28;20023;-45
2022/06/27 02:54:02;;;;;;;5.93;2.40;;;;;;;13.95;81.51;93739.59;5113755;28;20557;-44
2022/06/27 02:56:27;;;;;;;5.88;2.30;;;;;;;13.77;82.32;93744.34;5114753;28;20027;-47
2022/06/27 02:59:19;;;;;;;3.17;2.13;;;;;;;13.73;82.30;93740.47;5114965;28;20137;-44
2022/06/27 03:01:47;;;;;;;4.70;2.60;;;;;;;13.73;83.16;93746.03;5114583;28;20527;-44
2022/06/27 03:04:13;;;;;;;3.65;2.33;;;;;;;14.00;82.16;93747.72;5114815;28;20022;-43
2022/06/27 03:06:38;;;;;;;4.35;2.60;;;;;;;14.17;81.48;93750.59;5114863;28;20023;-44
2022/06/27 03:09:04;;;;;;;16.40;2.60;;;;;;;14.23;80.80;93748.31;5114708;28;20427;-45
2022/06/27 03:11:29;;;;;;;24.05;4.03;;;;;;;14.16;80.93;93745.59;5114434;28;20024;-46
2022/06/27 03:13:54;;;;;;;28.45;4.70;;;;;;;14.19;81.52;93747.22;5114314;28;20023;-46
2022/06/27 03:16:22;;;;;;;18.83;4.53;;;;;;;14.27;81.28;93750.72;5114625;28;20023;-44
2022/06/27 03:18:48;;;;;;;24.95;3.50;;;;;;;14.34;80.38;93752.72;5114343;28;20081;-47
2022/06/27 03:21:17;;;;;;;14.30;3.00;;;;;;;14.40;79.79;93756.03;5114507;28;20028;-44
2022/06/27 03:23:49;;;;;;;5.80;2.13;;;;;;;14.25;80.57;93758.88;5114153;28;20031;-45
2022/06/27 03:26:15;;;;;;;5.82;2.83;;;;;;;14.11;81.91;93752.09;5114440;28;20106;-45
2022/06/27 03:28:40;;;;;;;2.67;2.45;;;;;;;13.98;83.20;93757.91;5114123;28;20032;-46
2022/06/27 03:31:06;;;;;;;8.02;2.42;;;;;;;14.08;82.88;93765.06;5114034;28;20030;-45
2022/06/27 03:33:32;;;;;;;10.05;3.30;;;;;;;14.13;83.01;93755.06;5113948;28;20059;-45
2022/06/27 03:35:57;;;;;;;10.88;2.65;;;;;;;14.06;82.52;93755.81;5113897;28;20034;-45
2022/06/27 03:38:23;;;;;;;49.53;4.82;;;;;;;14.11;82.71;93760.44;5114154;28;20027;-44
2022/06/27 03:40:48;;;;;;;59.88;5.80;;;;;;;14.16;82.17;93759.47;5113716;28;20202;-46
2022/06/27 03:43:14;;;;;;;18.65;4.57;;;;;;;14.11;82.43;93760.44;5123518;27;20038;-44
2022/06/27 03:45:39;;;;;;;57.15;4.20;;;;;;;14.24;81.50;93766.47;5113599;28;20535;-44
2022/06/27 03:48:05;;;;;;;38.90;4.85;;;;;;;14.30;81.47;93766.25;5114010;28;20028;-44
2022/06/27 03:50:31;;;;;;;17.63;2.83;;;;;;;14.36;81.22;93761.97;5113647;28;20038;-44
2022/06/27 03:52:56;;;;;;;5.85;2.20;;;;;;;14.36;81.26;93766.78;5113948;28;20062;-44
2022/06/27 03:55:23;;;;;;;2.50;2.30;;;;;;;14.38;81.99;93764.16;5113453;28;20550;-45
2022/06/27 03:57:53;;;;;;;20.77;2.42;;;;;;;14.45;81.75;93768.94;5113523;28;20027;-45
2022/06/27 04:00:21;;;;;;;8.75;2.60;;;;;;;14.48;81.24;93767.81;5113792;28;20151;-45
2022/06/27 04:02:47;;;;;;;13.57;2.80;;;;;;;14.56;81.27;93759.41;5112940;28;20415;-44
2022/06/27 04:05:12;;;;;;;59.85;5.10;;;;;;;14.67;80.72;93770.06;5113699;28;20108;-44
2022/06/27 04:07:41;;;;;;;29.55;3.45;;;;;;;14.73;80.21;93757.41;5113615;28;20034;-44
2022/06/27 04:10:08;;;;;;;47.22;3.97;;;;;;;14.77;81.31;93765.38;5113324;28;20081;-46
2022/06/27 04:12:34;;;;;;;70.43;5.72;;;;;;;14.79;80.32;93746.78;5113496;28;20031;-44
2022/06/27 04:14:59;;;;;;;56.22;4.72;;;;;;;14.81;80.64;93758.09;5095252;28;20057;-45
2022/06/27 04:17:25;;;;;;;41.20;5.20;;;;;;;14.74;81.02;93745.00;5113111;28;20020;-44
2022/06/27 04:19:50;;;;;;;8.98;3.00;;;;;;;14.94;81.80;93759.84;5113074;28;20053;-47
2022/06/27 04:22:15;;;;;;;36.97;3.97;;;;;;;14.86;81.99;93759.16;5113003;28;20032;-47
2022/06/27 04:24:41;;;;;;;11.85;4.55;;;;;;;14.99;81.76;93759.59;5113307;28;20020;-45
2022/06/27 04:27:07;;;;;;;36.65;3.80;;;;;;;14.92;82.18;93746.50;5112932;28;20394;-44
2022/06/27 04:29:33;;;;;;;22.30;3.30;;;;;;;15.00;81.66;93754.78;5112916;28;20027;-47
2022/06/27 04:31:58;;;;;;;32.75;3.42;;;;;;;15.16;80.96;93736.63;5112578;28;20020;-46
2022/06/27 04:34:24;;;;;;;5.68;2.55;;;;;;;15.30;81.41;93739.81;5112710;28;20038;-46
2022/06/27 04:36:50;;;;;;;41.78;3.00;;;;;;;15.40;80.31;93754.56;5112669;28;20042;-43
2022/06/27 04:39:17;;;;;;;22.15;3.45;;;;;;;15.47;78.97;93760.06;5113005;28;20034;-46
2022/06/27 04:41:45;;;;;;;18.70;2.88;;;;;;;15.46;79.05;93743.94;5077591;28;20028;-46
2022/06/27 04:44:11;;;;;;;4.85;2.05;;;;;;;15.50;79.57;93749.84;5125216;27;20137;-47
2022/06/27 04:46:40;;;;;;;3.28;2.20;;;;;;;15.61;80.40;93752.13;5115128;27;20393;-46
2022/06/27 04:49:06;;;;;;;2.95;1.70;;;;;;;15.66;79.99;93746.28;5133363;27;20031;-45
2022/06/27 04:51:32;;;;;;;2.60;2.40;;;;;;;15.61;80.72;93749.34;5133027;27;20419;-46
2022/06/27 04:53:58;;;;;;;8.13;2.42;;;;;;;15.69;79.64;93741.63;5133271;27;20031;-45
2022/06/27 04:56:23;;;;;;;2.35;2.08;;;;;;;15.76;79.10;93746.38;5132903;27;20076;-43
2022/06/27 04:58:49;;;;;;;2.35;2.15;;;;;;;15.74;80.69;93749.00;5133261;27;20020;-46
2022/06/27 05:01:14;;;;;;;2.42;2.22;;;;;;;15.79;81.24;93740.38;5132804;27;20071;-47
2022/06/27 05:03:40;;;;;;;3.17;2.00;;;;;;;15.91;81.02;93743.41;5133127;27;20019;-47
2022/06/27 05:06:05;;;;;;;2.47;2.28;;;;;;;15.87;81.28;93729.88;5132740;27;20042;-44
2022/06/27 05:08:31;;;;;;;2.78;2.58;;;;;;;16.10;80.21;93737.19;5132706;27;20076;-44
2022/06/27 05:10:57;;;;;;;3.65;2.40;;;;;;;16.12;80.69;93738.09;5132996;27;20023;-44
2022/06/27 05:13:23;;;;;;;2.92;2.50;;;;;;;16.22;80.57;93740.94;5132332;27;20027;-44
2022/06/27 05:15:49;;;;;;;2.95;2.75;;;;;;;16.29;81.62;93743.59;5132333;27;20120;-48
2022/06/27 05:18:15;;;;;;;3.67;3.38;;;;;;;16.29;81.84;93740.06;5114157;27;20034;-45
2022/06/27 05:20:43;;;;;;;3.75;3.45;;;;;;;16.36;81.48;93748.34;5132771;27;20407;-44
2022/06/27 05:23:09;;;;;;;4.47;4.03;;;;;;;16.37;82.81;93741.44;5132749;27;20026;-44
2022/06/27 05:25:35;;;;;;;5.60;3.92;;;;;;;16.40;83.71;93740.28;5132327;27;20996;-45
2022/06/27 05:28:02;;;;;;;4.28;3.90;;;;;;;16.41;83.38;93744.56;5132645;27;20114;-42
2022/06/27 05:30:28;;;;;;;4.63;4.22;;;;;;;16.44;83.46;93753.78;5132580;27;20035;-45
2022/06/27 05:32:54;;;;;;;10.98;4.97;;;;;;;16.48;84.16;93757.63;5119110;27;20038;-46
2022/06/27 05:35:21;;;;;;;6.05;4.35;;;;;;;16.55;84.19;93754.00;5111634;28;20019;-45
2022/06/27 05:37:47;;;;;;;5.00;4.22;;;;;;;16.62;84.72;93755.97;5111582;28;20028;-45
2022/06/27 05:40:12;;;;;;;10.95;5.15;;;;;;;16.66;85.10;93755.53;5111875;28;20030;-44
2022/06/27 05:42:38;;;;;;;5.07;4.57;;;;;;;16.73;86.12;93759.50;5120913;27;20593;-46
2022/06/27 05:45:04;;;;;;;4.28;3.97;;;;;;;16.80;86.22;93767.03;5109980;28;20438;-45
2022/06/27 05:47:31;;;;;;;4.88;4.40;;;;;;;16.86;86.46;93754.28;5111698;28;20027;-45
2022/06/27 05:49:59;;;;;;;7.75;5.57;;;;;;;16.85;87.01;93752.06;5111644;28;20056;-45
2022/06/27 05:52:25;;;;;;;8.75;5.70;;;;;;;16.91;88.27;93763.69;5111237;28;20063;-45
2022/06/27 05:54:51;;;;;;;6.53;4.80;;;;;;;17.05;87.29;93756.38;5111206;28;20577;-45
2022/06/27 05:57:18;;;;;;;10.38;5.63;;;;;;;17.16;87.05;93758.59;5111505;28;20028;-45
2022/06/27 06:12:27;;;;;;;5.68;5.18;;;;;;;18.43;82.30;93771.34;5087531;28;20114;-46
2022/06/27 06:14:53;;;;;;;8.70;5.88;;;;;;;18.38;83.41;93772.41;5087577;28;20568;-46
2022/06/27 06:17:19;;;;;;;6.10;5.50;;;;;;;18.30;82.67;93766.22;5087429;28;20028;-50
2022/06/27 06:19:45;;;;;;;7.18;5.80;;;;;;;18.40;84.09;93769.75;5087612;28;20020;-46
2022/06/27 06:22:12;;;;;;;10.25;6.18;;;;;;;18.42;83.88;93772.69;5087699;28;20032;-45
2022/06/27 06:24:37;;;;;;;6.53;5.93;;;;;;;18.45;84.79;93771.50;5087594;28;20032;-46
2022/06/27 06:27:03;;;;;;;8.07;6.53;;;;;;;18.47;85.34;93771.69;5087621;28;20503;-47
2022/06/27 06:29:29;;;;;;;6.97;6.20;;;;;;;18.57;85.06;93780.03;5087226;28;20103;-47
2022/06/27 06:31:54;;;;;;;7.10;5.50;;;;;;;18.68;84.63;93774.53;5087190;28;20021;-47
2022/06/27 06:34:20;;;;;;;9.98;6.32;;;;;;;18.80;85.20;93774.63;5087360;28;20089;-46
2022/06/27 06:36:48;;;;;;;7.50;5.32;;;;;;;18.86;87.03;93772.28;5087346;28;20481;-47
2022/06/27 06:39:13;;;;;;;6.50;5.65;;;;;;;19.01;86.73;93774.69;5087312;28;20024;-49
2022/06/27 06:41:40;;;;;;;8.25;6.50;;;;;;;19.23;85.91;93778.28;5086936;28;20020;-46
2022/06/27 06:44:06;;;;;;;7.05;6.35;;;;;;;19.30;86.10;93775.25;5087141;28;20412;-47
2022/06/27 06:46:35;;;;;;;14.13;6.35;;;;;;;19.30;84.77;93780.13;5087186;28;20107;-45
2022/06/27 06:49:05;;;;;;;;;;;;;;;19.47;80.69;93783.44;5087452;28;20020;-46
2022/06/27 06:51:34;;;;;;;6.22;5.63;;;;;;;19.41;80.25;93785.09;5087189;28;19916;-47
2022/06/27 06:54:06;;;;;;;5.75;5.25;;;;;;;19.48;79.79;93779.31;5086832;28;20527;-48
2022/06/27 06:56:32;;;;;;;10.55;5.45;;;;;;;19.52;79.67;93784.44;5087043;28;20488;-45
2022/06/27 06:59:01;;;;;;;5.70;4.70;;;;;;;19.62;79.35;93780.22;5086676;28;20032;-46
2022/06/27 07:01:27;;;;;;;8.55;5.38;;;;;;;19.69;79.18;93792.56;5086811;28;20048;-49
2022/06/27 07:03:54;;;;;;;7.18;5.55;;;;;;;19.80;80.66;93788.34;5086915;28;20016;-49
2022/06/27 07:06:25;;;;;;;8.30;6.15;;;;;;;19.89;79.28;93787.56;5086862;28;20048;-46
2022/06/27 07:08:55;;;;;;;6.00;5.30;;;;;;;19.98;79.22;93786.75;5086859;28;20028;-50
2022/06/27 07:11:22;;;;;;;6.00;5.28;;;;;;;20.11;78.50;93786.94;5084608;28;20052;-48
2022/06/27 07:13:49;;;;;;;6.80;5.05;;;;;;;20.28;76.81;93781.03;5073000;28;20028;-47
2022/06/27 07:16:15;;;;;;;9.20;5.03;;;;;;;20.49;74.56;93780.22;5073137;28;20048;-49
2022/06/27 07:18:43;;;;;;;6.28;4.53;;;;;;;20.79;74.11;93781.41;5073125;28;20027;-47
2022/06/27 07:21:09;;;;;;;6.53;4.82;;;;;;;21.15;74.05;93789.25;5073034;28;20024;-49
2022/06/27 07:23:34;;;;;;;5.25;3.88;;;;;;;21.46;69.35;93786.88;5072630;28;20463;-47
2022/06/27 07:26:00;;;;;;;14.88;4.93;;;;;;;22.16;70.02;93793.09;5072807;28;20020;-49
2022/06/27 07:28:28;;;;;;;4.00;3.60;;;;;;;23.03;63.59;93787.38;5072498;28;20020;-47
2022/06/27 07:30:55;;;;;;;4.82;3.65;;;;;;;23.91;62.12;93794.06;5072936;28;20024;-49
2022/06/27 07:33:21;;;;;;;6.95;4.00;;;;;;;24.75;58.41;93799.63;5072627;28;20405;-47
2022/06/27 07:35:47;;;;;;;6.95;3.80;;;;;;;25.31;55.43;93796.56;5072844;28;20027;-43
2022/06/27 07:38:13;;;;;;;3.83;3.13;;;;;;;25.79;54.40;93792.34;5055119;28;20021;-43
2022/06/27 07:40:38;;;;;;;4.70;3.38;;;;;;;26.32;52.01;93798.13;5072338;28;20043;-44
2022/06/27 07:43:05;;;;;;;7.90;3.20;;;;;;;26.67;49.75;93797.41;5072304;28;20017;-43
2022/06/27 07:45:31;;;;;;;3.75;3.45;;;;;;;26.95;49.94;93798.53;5072608;28;20078;-46
2022/06/27 07:47:57;;;;;;;3.80;3.22;;;;;;;27.29;48.22;93804.81;5072279;28;20452;-43
2022/06/27 07:50:39;;;;;;;4.07;3.13;;;;;;;27.41;47.16;93794.66;5072578;28;20023;-43
2022/06/27 07:53:18;;;;;;;3.63;2.97;;;;;;;27.52;47.24;93796.50;5072495;28;20442;-45
2022/06/27 07:55:55;;;;;;;6.68;3.08;;;;;;;27.98;45.83;93799.56;5072301;28;20082;-44
2022/06/27 07:58:30;;;;;;;4.45;3.15;;;;;;;27.59;46.06;93797.44;5072167;28;20496;-45
2022/06/27 08:00:57;;;;;;;3.80;3.38;;;;;;;27.31;47.14;93807.72;5072282;28;20426;-45
2022/06/27 08:06:13;;;;;;;3.83;2.67;;;;;;;28.02;45.69;93811.78;5072115;28;20094;-46
2022/06/27 08:08:41;;;;;;;5.30;2.90;;;;;;;27.37;46.12;93802.28;5071779;28;20030;-45
2022/06/27 08:11:13;;;;;;;5.25;3.28;;;;;;;26.80;47.08;93799.38;5071833;28;20033;-42
2022/06/27 08:13:40;;;;;;;7.38;3.30;;;;;;;26.86;47.21;93817.34;5071830;28;20086;-44
2022/06/27 08:16:06;;;;;;;5.53;2.75;;;;;;;26.50;48.69;93818.69;5071722;28;20052;-44
2022/06/27 08:18:32;;;;;;;7.45;3.33;;;;;;;26.81;48.63;93809.34;5072009;28;20039;-43
2022/06/27 08:21:01;;;;;;;4.20;2.90;;;;;;;27.57;46.90;93812.25;5071579;28;20089;-43
2022/06/27 08:23:28;;;;;;;3.22;2.72;;;;;;;28.10;46.52;93817.72;5070961;28;20031;-43
2022/06/27 08:25:54;;;;;;;4.30;3.40;;;;;;;28.45;44.49;93811.84;5071434;28;20523;-46
2022/06/27 08:28:22;;;;;;;2.92;2.53;;;;;;;29.09;41.96;93818.16;5071803;28;20446;-43
2022/06/27 08:30:47;;;;;;;4.35;3.13;;;;;;;29.64;42.51;93824.13;5071664;28;20043;-44
2022/06/27 08:33:13;;;;;;;6.40;2.72;;;;;;;30.02;40.09;93818.78;5071423;28;20482;-44
2022/06/27 08:35:39;;;;;;;3.38;2.85;;;;;;;29.65;39.50;93814.16;5071307;28;20028;-43
2022/06/27 08:38:05;;;;;;;7.28;2.80;;;;;;;29.76;39.95;93824.47;5071613;28;20048;-46
2022/06/27 08:40:31;;;;;;;3.40;2.50;;;;;;;29.78;39.78;93818.84;5071433;28;20568;-47
2022/06/27 08:42:58;;;;;;;4.07;2.90;;;;;;;30.29;40.40;93815.25;5071392;28;20029;-44
2022/06/27 08:45:25;;;;;;;2.95;2.67;;;;;;;30.94;37.60;93814.81;5071470;28;20113;-45
2022/06/27 08:48:04;;;;;;;3.00;2.80;;;;;;;30.55;37.38;93813.13;5071488;28;20386;-46
2022/06/27 08:50:30;;;;;;;6.10;3.17;;;;;;;30.54;38.59;93814.50;5071084;28;20025;-47
2022/06/27 08:52:58;;;;;;;8.75;2.90;;;;;;;29.93;40.78;93808.59;5053146;28;20027;-46
2022/06/27 08:55:24;;;;;;;5.53;2.55;;;;;;;30.85;36.99;93818.84;5053879;28;20046;-43
2022/06/27 08:57:49;;;;;;;2.80;2.20;;;;;;;31.50;38.39;93814.66;5071236;28;20062;-45
2022/06/27 09:00:15;;;;;;;6.57;2.33;;;;;;;32.04;33.16;93822.25;5071082;28;20447;-45
2022/06/27 09:02:44;;;;;;;3.50;2.45;;;;;;;31.99;34.56;93817.13;5071167;28;20602;-43
2022/06/27 09:05:18;;;;;;;;;;;;;;;32.51;32.95;93808.88;5071426;28;20024;-43
2022/06/27 09:07:59;;;;;;;5.05;2.67;;;;;;;32.90;32.22;93808.81;5070730;28;19999;-44
2022/06/27 09:10:43;;;;;;;3.13;2.60;;;;;;;32.98;34.80;93819.69;5052990;28;20433;-46
2022/06/27 09:13:13;;;;;;;3.17;2.75;;;;;;;33.17;35.28;93809.97;5070936;28;20052;-46
2022/06/27 09:15:39;;;;;;;5.78;3.05;;;;;;;33.95;33.83;93807.50;5070589;28;20028;-45
2022/06/27 09:18:08;;;;;;;3.88;2.40;;;;;;;34.18;30.67;93806.34;5070814;28;20035;-45
2022/06/27 09:20:50;;;;;;;4.00;2.90;;;;;;;35.06;30.73;93808.69;5070595;28;20401;-46
2022/06/27 09:23:58;;;;;;;4.00;2.28;;;;;;;35.59;29.49;93807.63;5070725;28;20101;-45
2022/06/27 09:26:31;;;;;;;2.88;2.08;;;;;;;34.92;28.78;93812.13;5070557;28;20116;-44
2022/06/27 09:28:58;;;;;;;2.58;2.25;;;;;;;35.29;30.49;93803.81;5070368;28;20033;-47
2022/06/27 09:31:32;;;;;;;5.13;2.38;;;;;;;35.88;28.95;93810.63;5070085;28;20016;-46
2022/06/27 09:34:14;;;;;;;3.75;2.40;;;;;;;35.34;29.38;93808.88;5070359;28;20086;-45
2022/06/27 09:36:54;;;;;;;3.45;2.28;;;;;;;35.98;28.28;93807.81;5070106;28;20029;-46
2022/06/27 09:39:31;;;;;;;2.17;2.00;;;;;;;36.85;28.09;93803.75;5070627;28;20082;-44
2022/06/27 09:42:01;;;;;;;3.08;2.33;;;;;;;37.35;29.07;93796.59;5070202;28;20020;-45
2022/06/27 09:44:35;;;;;;;3.78;2.00;;;;;;;37.86;26.83;93806.59;5070129;28;20031;-47
2022/06/27 09:47:13;;;;;;;7.20;2.58;;;;;;;37.84;25.47;93797.94;5068970;28;20055;-44
2022/06/27 09:49:40;;;;;;;4.55;2.40;;;;;;;38.12;26.63;93797.84;5070212;28;20025;-44
2022/06/27 09:52:19;;;;;;;2.70;2.30;;;;;;;38.07;26.28;93801.47;5070352;28;20040;-46
2022/06/27 09:54:47;;;;;;;2.20;2.00;;;;;;;37.88;25.25;93804.41;5070326;28;20036;-45
2022/06/27 09:57:14;;;;;;;4.10;1.67;;;;;;;38.09;25.73;93793.53;5070085;28;20496;-44
2022/06/27 09:59:40;;;;;;;2.85;1.60;;;;;;;38.70;23.38;93794.00;5070340;28;20024;-43
2022/06/27 10:02:06;;;;;;;3.10;1.77;;;;;;;38.91;24.23;93797.44;5069997;28;20638;-47
2022/06/27 10:04:35;;;;;;;2.63;2.40;;;;;;;38.80;23.84;93796.06;5070110;28;20103;-45
2022/06/27 10:07:02;;;;;;;3.38;2.10;;;;;;;38.82;23.59;93796.78;5070134;28;20025;-44
2022/06/27 10:09:30;;;;;;;2.20;2.00;;;;;;;38.50;24.81;93802.75;5070280;28;20123;-45
2022/06/27 10:12:23;;;;;;;5.72;2.13;;;;;;;38.74;24.90;93799.72;5052118;28;20037;-48
2022/06/27 10:15:18;;;;;;;3.40;2.30;;;;;;;38.63;23.23;93796.16;5070231;28;20028;-47
2022/06/27 10:17:46;;;;;;;2.42;2.03;;;;;;;38.41;24.60;93802.06;5049186;28;20037;-44
2022/06/27 10:20:21;;;;;;;2.05;1.75;;;;;;;38.77;24.11;93795.38;5070185;28;20101;-44
2022/06/27 10:23:06;;;;;;;3.53;2.00;;;;;;;38.80;23.32;93796.06;5069927;28;20034;-47
2022/06/27 10:25:32;;;;;;;3.03;2.15;;;;;;;38.99;24.96;93791.59;5052538;28;20129;-46
2022/06/27 10:28:10;;;;;;;5.03;1.98;;;;;;;37.98;22.85;93789.25;5070143;28;20103;-43
2022/06/27 10:30:54;;;;;;;5.63;2.47;;;;;;;37.92;25.30;93792.88;5070076;28;20024;-45
2022/06/27 10:33:25;;;;;;;1.98;1.85;;;;;;;37.27;24.93;93797.31;5069496;28;20035;-45
2022/06/27 10:35:54;;;;;;;2.63;2.00;;;;;;;36.78;25.99;93787.94;5070075;28;20032;-46
2022/06/27 10:38:46;;;;;;;2.63;2.42;;;;;;;37.14;24.79;93790.81;5069786;28;20052;-45
2022/06/27 10:41:18;;;;;;;2.65;1.85;;;;;;;37.34;24.35;93792.97;5069010;28;20582;-45
2022/06/27 10:43:54;;;;;;;4.18;2.10;;;;;;;36.87;25.50;93798.00;5069914;28;20768;-47
2022/06/27 10:46:20;;;;;;;2.10;1.90;;;;;;;37.02;26.42;93790.13;5069613;28;20386;-45
2022/06/27 10:48:50;;;;;;;3.72;2.17;;;;;;;36.54;28.97;93787.88;5073148;28;20101;-44
2022/06/27 10:51:22;;;;;;;2.30;1.77;;;;;;;36.89;27.41;93783.66;5073718;28;20082;-46
2022/06/27 10:53:48;;;;;;;2.72;2.08;;;;;;;36.41;27.00;93792.16;5073540;28;20521;-49
2022/06/27 10:56:26;;;;;;;4.30;1.98;;;;;;;35.73;28.12;93801.22;5073385;28;20540;-44
2022/06/27 10:58:51;;;;;;;2.77;2.00;;;;;;;36.22;27.91;93794.28;5073555;28;20024;-44
2022/06/27 11:01:18;;;;;;;2.97;2.13;;;;;;;35.68;28.60;93794.75;5073075;28;20400;-46
2022/06/27 11:03:44;;;;;;;3.00;2.15;;;;;;;35.72;27.45;93806.25;5073500;28;20028;-46
2022/06/27 11:06:13;;;;;;;2.95;2.13;;;;;;;35.10;29.72;93796.50;5073374;28;20016;-46
2022/06/27 11:08:40;;;;;;;2.10;1.90;;;;;;;35.20;29.01;93799.44;5073228;28;20401;-45
2022/06/27 11:11:09;;;;;;;2.15;2.00;;;;;;;35.56;30.58;93806.16;5072798;28;20048;-44
2022/06/27 11:13:53;;;;;;;3.85;1.92;;;;;;;35.29;29.48;93798.78;5072805;28;20028;-44
2022/06/27 11:16:23;;;;;;;2.75;2.05;;;;;;;34.33;30.49;93796.47;5073266;28;20386;-45
2022/06/27 11:18:50;;;;;;;2.30;2.08;;;;;;;33.81;30.22;93801.56;5072841;28;20106;-46
2022/06/27 11:21:23;;;;;;;3.60;2.45;;;;;;;33.50;32.75;93788.28;5073062;28;20051;-44
2022/06/27 11:23:50;;;;;;;5.22;2.15;;;;;;;33.42;32.28;93793.88;5072777;28;20024;-45
2022/06/27 11:26:17;;;;;;;3.28;2.17;;;;;;;32.72;32.16;93797.09;5055185;28;20028;-47
2022/06/27 11:34:11;;;;;;;7.05;3.08;;;;;;;31.21;35.41;93791.19;5073008;28;20517;-44
2022/06/27 11:36:39;;;;;;;3.25;2.00;;;;;;;31.11;36.77;93793.09;5054740;28;20024;-48
2022/06/27 11:39:05;;;;;;;3.55;2.58;;;;;;;30.49;36.32;93772.34;5072619;28;20028;-44
2022/06/27 11:41:30;;;;;;;3.15;2.60;;;;;;;30.58;39.69;93794.66;5072702;28;20021;-45
2022/06/27 11:43:58;;;;;;;3.22;2.55;;;;;;;30.59;37.34;93789.69;5072663;28;20122;-43
2022/06/27 11:46:24;;;;;;;2.85;2.40;;;;;;;30.55;38.81;93783.88;5072394;28;20097;-46
2022/06/27 11:49:03;;;;;;;5.88;2.67;;;;;;;30.07;39.84;93785.44;5072330;28;20025;-45
2022/06/27 11:51:38;;;;;;;;;;;;;;;30.03;39.64;93780.38;5073145;28;20526;-45
2022/06/27 11:54:13;;;;;;;2.67;2.30;;;;;;;29.98;42.53;93781.66;5072601;28;19909;-47
2022/06/27 11:56:41;;;;;;;4.25;2.10;;;;;;;29.79;37.82;93779.72;5072449;28;20024;-46